Time;durP1;ratioP1;P1;durP2;ratioP2;P2;SDS_P1;SDS_P2;PMS_P1;PMS_P2;Temp;Humidity;BMP_temperature;BMP_pressure;BME280_temperature;BME280_humidity;BME280_pressure;Samples;Min_cycle;Max_cycle;Signal;HPM_P1;HPM_P2
2022/09/20 00:03:25;;;;;;;2.63;0.70;;;;;;;14.06;69.72;99965.97;10467097;28;20076;-69
2022/09/20 00:08:26;;;;;;;4.13;0.88;;;;;;;14.83;69.84;100085.06;10499123;28;20072;-70
2022/09/20 00:13:27;;;;;;;6.90;0.80;;;;;;;14.41;70.69;100006.78;10498507;28;20083;-69
2022/09/20 00:18:28;;;;;;;6.75;0.90;;;;;;;14.90;71.29;100083.25;10497425;28;20044;-69
2022/09/20 00:23:29;;;;;;;5.03;1.00;;;;;;;15.25;71.62;100120.53;10497726;28;20400;-69
2022/09/20 00:28:32;;;;;;;4.50;0.70;;;;;;;14.98;71.65;100109.78;10496912;28;20086;-70
2022/09/20 00:39:00;;;;;;;2.40;0.98;;;;;;;14.90;72.92;100154.59;10498112;28;20055;-69
2022/09/20 00:44:02;;;;;;;3.45;0.68;;;;;;;15.17;70.67;100169.72;10496640;28;20089;-69
2022/09/20 00:49:20;;;;;;;2.15;0.50;;;;;;;14.38;69.47;99993.81;10496238;28;20041;-69
2022/09/20 00:54:24;;;;;;;1.45;0.50;;;;;;;14.98;69.16;100040.25;10495907;28;20080;-69
2022/09/20 00:59:27;;;;;;;;;;;;;;;15.83;68.69;100128.84;10498111;28;20043;-69
2022/09/20 01:04:29;;;;;;;3.17;0.50;;;;;;;15.26;69.15;100034.72;10497014;28;19970;-69
2022/09/20 01:09:30;;;;;;;4.85;1.10;;;;;;;14.98;69.46;99917.19;10495143;28;20041;-70
2022/09/20 01:14:31;;;;;;;7.07;1.25;;;;;;;15.15;70.38;99778.47;10495886;28;20040;-71
2022/09/20 01:20:05;;;;;;;5.90;0.80;;;;;;;14.88;79.01;99985.53;10496985;28;20044;-72
2022/09/20 01:25:06;;;;;;;13.18;1.02;;;;;;;14.96;75.47;100160.00;10496614;28;20048;-72
2022/09/20 01:30:11;;;;;;;2.78;0.50;;;;;;;14.70;74.95;100112.59;10496014;28;20492;-70
2022/09/20 01:35:14;;;;;;;9.65;0.73;;;;;;;14.66;75.89;100052.53;10495351;28;20036;-70
2022/09/20 01:40:30;;;;;;;4.32;0.60;;;;;;;15.43;77.40;100170.78;10495294;28;20044;-70
2022/09/20 01:45:31;;;;;;;4.40;0.77;;;;;;;14.25;75.24;99980.44;10496208;28;20040;-70
2022/09/20 01:50:44;;;;;;;3.90;0.50;;;;;;;15.05;76.16;100102.63;10495810;28;20082;-69
2022/09/20 01:56:05;;;;;;;11.63;0.98;;;;;;;15.46;77.99;100176.56;10494756;28;20089;-70
2022/09/20 02:01:51;;;;;;;3.20;0.80;;;;;;;15.45;78.04;100187.50;10494082;28;20040;-69
2022/09/20 02:07:29;;;;;;;4.25;0.85;;;;;;;15.44;77.59;100183.16;10493886;28;20062;-69
2022/09/20 02:12:42;;;;;;;7.55;0.80;;;;;;;15.29;76.63;100188.69;10494492;28;20040;-70
2022/09/20 02:18:12;;;;;;;8.50;1.02;;;;;;;15.32;79.84;100158.84;10494868;28;20528;-69
2022/09/20 02:23:21;;;;;;;20.05;1.80;;;;;;;15.26;77.67;100132.91;10493752;28;20032;-69
2022/09/20 02:28:52;;;;;;;79.30;4.30;;;;;;;15.20;81.92;100117.66;10499374;28;20519;-71
2022/09/20 02:34:09;;;;;;;30.60;2.20;;;;;;;14.54;80.48;100028.25;10492215;28;20032;-70
2022/09/20 02:39:35;;;;;;;66.28;3.17;;;;;;;14.69;80.89;100072.69;10453456;28;20052;-70
2022/09/20 02:44:58;;;;;;;23.42;1.77;;;;;;;13.35;80.52;99872.88;10453555;28;20048;-69
2022/09/20 02:50:24;;;;;;;77.63;4.87;;;;;;;13.56;80.34;99880.75;10453899;28;20051;-69
2022/09/20 02:55:37;;;;;;;138.45;9.60;;;;;;;14.77;81.68;100070.66;10452529;28;20056;-69
2022/09/20 03:01:01;;;;;;;32.40;2.40;;;;;;;14.03;81.44;99953.88;10468287;28;20140;-69
2022/09/20 03:06:17;;;;;;;14.82;1.10;;;;;;;14.65;80.64;100071.44;10492033;28;20052;-69
2022/09/20 03:11:43;;;;;;;18.55;1.27;;;;;;;14.67;80.22;100074.75;10472052;28;20080;-69
2022/09/20 03:17:21;;;;;;;12.68;0.80;;;;;;;14.72;80.31;100083.00;10438213;28;20063;-69
2022/09/20 03:22:29;;;;;;;3.17;0.80;;;;;;;14.93;77.98;100139.00;10458314;28;20143;-68
2022/09/20 03:27:42;;;;;;;163.43;7.78;;;;;;;14.71;78.74;100116.91;10458752;28;20079;-68
2022/09/20 03:32:55;;;;;;;2.60;0.60;;;;;;;15.31;78.30;100183.94;10459411;28;20489;-70
2022/09/20 03:38:13;;;;;;;2.97;1.00;;;;;;;15.18;77.23;100117.03;10458666;28;20158;-70
2022/09/20 03:43:40;;;;;;;6.65;1.23;;;;;;;15.79;76.69;100191.84;10457239;28;20047;-70
2022/09/20 03:48:53;;;;;;;7.22;0.70;;;;;;;15.02;74.88;99996.03;10456737;28;20098;-70
2022/09/20 03:53:59;;;;;;;35.35;2.28;;;;;;;16.71;74.35;100173.97;10457645;28;20036;-70
2022/09/20 03:59:28;;;;;;;71.88;4.90;;;;;;;17.47;72.23;100183.09;10456896;28;20516;-72
2022/09/20 04:04:55;;;;;;;2.17;0.63;;;;;;;17.65;70.76;100185.88;10456114;28;20052;-70
2022/09/20 04:10:27;;;;;;;1.58;0.47;;;;;;;17.62;70.50;100186.31;10457078;28;20033;-70
2022/09/20 04:15:43;;;;;;;5.63;0.85;;;;;;;18.10;69.35;100188.44;10453827;28;20257;-71
2022/09/20 04:20:55;;;;;;;4.32;0.50;;;;;;;18.63;67.10;100152.88;10372253;28;20058;-68
2022/09/20 04:25:58;;;;;;;2.22;0.60;;;;;;;18.59;66.12;100029.81;10374434;28;20091;-69
2022/09/20 04:31:07;;;;;;;5.07;0.55;;;;;;;19.67;63.31;100133.03;10375549;28;20049;-69
2022/09/20 04:36:50;;;;;;;1.40;0.47;;;;;;;19.75;61.46;100073.41;10373821;28;20069;-70
2022/09/20 04:42:09;;;;;;;4.60;0.90;;;;;;;20.25;60.36;100141.13;10371170;28;20045;-70
2022/09/20 04:47:47;;;;;;;1.83;0.73;;;;;;;19.91;59.94;100075.38;10373471;28;20091;-70
2022/09/20 04:53:13;;;;;;;14.05;1.73;;;;;;;20.35;59.78;100135.13;10372750;28;20058;-69
2022/09/20 04:58:40;;;;;;;4.05;1.30;;;;;;;20.04;58.20;100058.13;10374156;28;20053;-70
2022/09/20 05:04:20;;;;;;;3.20;0.70;;;;;;;20.25;55.61;100097.97;10372502;28;20061;-69
2022/09/20 05:09:40;;;;;;;2.10;0.40;;;;;;;20.62;54.28;100123.81;10373759;28;20083;-70
2022/09/20 05:14:53;;;;;;;7.55;0.70;;;;;;;20.78;53.09;100136.56;10373407;28;20108;-70
2022/09/20 05:20:22;;;;;;;1.08;0.40;;;;;;;20.93;52.08;100117.94;10373202;28;20492;-68
2022/09/20 05:25:37;;;;;;;2.85;0.43;;;;;;;21.00;50.13;100111.56;10372252;28;20052;-70
2022/09/20 05:30:53;;;;;;;3.42;0.40;;;;;;;21.09;49.64;100113.66;10372209;28;20060;-69
2022/09/20 05:35:56;;;;;;;2.47;0.65;;;;;;;20.99;50.45;100029.75;10372171;28;20038;-69
2022/09/20 05:41:30;;;;;;;58.03;4.35;;;;;;;21.72;50.19;100122.56;10373355;28;20038;-71
2022/09/20 05:46:55;;;;;;;1.92;0.50;;;;;;;21.74;48.18;100114.19;10372287;28;20132;-69
2022/09/20 05:52:13;;;;;;;1.27;0.40;;;;;;;22.16;48.62;100128.06;10371848;28;20045;-69
2022/09/20 05:57:38;;;;;;;2.42;0.47;;;;;;;22.46;48.48;100113.31;10371729;28;20433;-70
2022/09/20 06:03:09;;;;;;;2.10;0.75;;;;;;;22.62;47.79;100125.16;10376100;28;20053;-70
2022/09/20 06:08:37;;;;;;;6.30;0.98;;;;;;;22.68;47.88;100108.72;10380746;28;20516;-70
2022/09/20 06:14:08;;;;;;;2.47;0.63;;;;;;;21.77;47.20;99978.50;10379013;28;20044;-70
2022/09/20 06:19:24;;;;;;;3.90;0.90;;;;;;;22.44;47.07;100089.22;10379066;28;20054;-70
2022/09/20 06:24:41;;;;;;;2.60;0.80;;;;;;;22.45;46.35;100044.03;10380315;28;20050;-70
2022/09/20 06:29:50;;;;;;;6.07;0.80;;;;;;;22.72;45.93;100058.38;10379044;28;20042;-71
2022/09/20 06:34:51;;;;;;;1.77;0.70;;;;;;;23.08;46.47;100102.13;10379478;28;20582;-71
2022/09/20 06:45:16;;;;;;;5.53;1.20;;;;;;;22.95;46.50;100053.78;10378641;28;20445;-72
2022/09/20 06:50:18;;;;;;;3.90;1.00;;;;;;;23.09;46.37;100054.97;10379402;28;20053;-70
2022/09/20 06:55:24;;;;;;;2.25;0.60;;;;;;;23.20;45.16;100024.19;10378587;28;20564;-70
2022/09/20 07:00:25;;;;;;;0.98;0.50;;;;;;;23.54;45.20;100042.03;10378451;28;20085;-69
2022/09/20 07:05:25;;;;;;;4.45;0.80;;;;;;;23.66;45.81;100029.09;10377258;28;20119;-69
2022/09/20 07:10:27;;;;;;;4.88;2.45;;;;;;;23.84;45.15;100006.16;10377627;28;20042;-70
2022/09/20 07:15:31;;;;;;;5.40;1.27;;;;;;;23.11;44.81;99840.69;10377332;28;20120;-70
2022/09/20 07:20:32;;;;;;;;;;;;;;;24.65;45.10;100008.38;10378133;28;20405;-69
2022/09/20 07:25:33;;;;;;;2.53;0.93;;;;;;;24.45;45.40;100003.72;10377493;28;19917;-70
2022/09/20 07:30:34;;;;;;;3.20;1.20;;;;;;;23.35;45.77;99800.41;10375959;28;20452;-70
2022/09/20 07:35:35;;;;;;;5.80;1.08;;;;;;;24.57;45.92;99949.97;10377240;28;20046;-71
2022/09/20 07:40:36;;;;;;;6.25;1.02;;;;;;;24.30;45.58;99901.31;10377316;28;20038;-69
2022/09/20 07:45:38;;;;;;;5.90;1.40;;;;;;;24.79;45.64;99938.03;10376512;28;20048;-70
2022/09/20 07:50:39;;;;;;;13.93;2.08;;;;;;;23.97;46.24;99779.72;10376102;28;20053;-70
2022/09/20 07:55:40;;;;;;;4.05;1.20;;;;;;;25.02;46.28;99907.56;10376229;28;20070;-70
2022/09/20 08:00:40;;;;;;;2.80;1.23;;;;;;;24.98;46.36;99875.81;10375626;28;20497;-70
2022/09/20 08:05:42;;;;;;;3.65;1.40;;;;;;;24.83;46.21;99844.03;10374674;28;20397;-69
2022/09/20 08:10:47;;;;;;;14.38;1.80;;;;;;;25.60;46.45;99928.91;10375830;28;20041;-70
2022/09/20 08:15:48;;;;;;;4.00;1.20;;;;;;;25.39;46.04;99876.50;10375297;28;20173;-70
2022/09/20 08:20:49;;;;;;;5.88;1.40;;;;;;;24.54;45.84;99730.56;10376000;28;20129;-70
2022/09/20 08:25:50;;;;;;;10.23;1.83;;;;;;;25.50;45.26;99880.81;10373483;28;20046;-69
2022/09/20 08:30:51;;;;;;;12.05;1.58;;;;;;;25.30;45.25;99802.06;10374778;28;20029;-69
2022/09/20 08:35:52;;;;;;;4.75;1.23;;;;;;;25.90;45.04;99861.88;10374115;28;20041;-71
2022/09/20 08:41:00;;;;;;;6.65;2.22;;;;;;;25.43;44.51;99759.88;10374908;28;20049;-70
2022/09/20 08:46:03;;;;;;;13.75;2.00;;;;;;;26.21;43.92;99848.91;10374129;28;20038;-69
2022/09/20 08:51:05;;;;;;;3.40;1.10;;;;;;;25.93;43.98;99785.94;10373554;28;20405;-72
2022/09/20 08:56:08;;;;;;;7.88;1.63;;;;;;;26.46;44.16;99879.75;10374036;28;20054;-70
2022/09/20 09:01:22;;;;;;;6.85;1.35;;;;;;;26.65;43.64;99877.97;10373172;28;20045;-70
2022/09/20 09:06:23;;;;;;;2.20;1.10;;;;;;;25.87;43.29;99721.75;10372993;28;20137;-70
2022/09/20 09:11:24;;;;;;;11.93;1.40;;;;;;;26.45;43.25;99823.66;10373263;28;20048;-70
2022/09/20 09:16:28;;;;;;;3.92;1.88;;;;;;;26.87;43.03;99855.72;10373409;28;20044;-70
2022/09/20 09:21:30;;;;;;;6.45;1.27;;;;;;;25.79;42.70;99642.66;10372899;28;20137;-70
2022/09/20 09:26:36;;;;;;;5.50;1.35;;;;;;;26.63;42.07;99776.66;10371813;28;20042;-71
2022/09/20 09:31:38;;;;;;;9.82;1.25;;;;;;;26.41;42.64;99715.31;10371033;28;20148;-70
2022/09/20 09:36:45;;;;;;;5.93;1.30;;;;;;;27.45;41.88;99835.72;10372881;28;20042;-69
2022/09/20 09:41:45;;;;;;;9.75;1.58;;;;;;;26.93;42.22;99756.44;10372867;28;20129;-70
2022/09/20 09:46:48;;;;;;;7.40;1.95;;;;;;;26.63;42.09;99711.28;10372282;28;20033;-70
2022/09/20 09:52:17;;;;;;;27.00;2.72;;;;;;;27.83;42.32;99822.94;10371173;28;20038;-69
2022/09/20 09:57:35;;;;;;;3.45;1.45;;;;;;;27.49;41.79;99754.91;10372270;28;20556;-70
2022/09/20 10:02:52;;;;;;;10.68;1.77;;;;;;;28.06;42.39;99829.44;10371426;28;20058;-69
2022/09/20 10:08:18;;;;;;;5.82;2.30;;;;;;;28.09;41.91;99830.72;10371981;28;20128;-70
2022/09/20 10:13:42;;;;;;;11.88;3.00;;;;;;;27.71;42.64;99744.22;10372281;28;20057;-69
2022/09/20 10:19:33;;;;;;;11.88;2.30;;;;;;;28.50;42.62;99828.19;10372299;28;20045;-69
2022/09/20 10:25:22;;;;;;;24.17;14.30;;;;;;;28.57;42.21;99817.69;10370258;28;20498;-71
2022/09/20 10:30:44;;;;;;;30.52;17.35;;;;;;;28.03;42.30;99741.81;10369671;28;20134;-71
2022/09/20 10:36:00;;;;;;;8.07;4.10;;;;;;;27.96;42.06;99826.84;10370849;28;20502;-69
2022/09/20 10:46:59;;;;;;;20.55;7.45;;;;;;;27.46;43.04;99816.34;10371212;28;20046;-69
2022/09/20 10:52:12;;;;;;;8.65;3.70;;;;;;;27.69;43.29;99841.94;10378310;28;20048;-69
2022/09/20 10:57:41;;;;;;;5.35;1.90;;;;;;;27.79;43.30;99841.03;10377422;28;20057;-69
2022/09/20 11:02:53;;;;;;;7.22;4.00;;;;;;;27.77;43.25;99840.47;10378238;28;20049;-69
2022/09/20 11:08:14;;;;;;;9.85;2.55;;;;;;;27.61;43.54;99823.50;10378789;28;20104;-71
2022/09/20 11:13:56;;;;;;;8.82;3.03;;;;;;;27.38;42.91;99788.91;10377948;28;20038;-69
2022/09/20 11:19:09;;;;;;;7.35;1.85;;;;;;;27.41;43.11;99824.56;10375697;28;20058;-69
2022/09/20 11:24:26;;;;;;;6.05;1.58;;;;;;;27.67;43.97;99855.06;10376846;28;20046;-69
2022/09/20 11:29:36;;;;;;;5.22;2.50;;;;;;;27.07;43.30;99770.16;10376703;28;20038;-70
2022/09/20 11:34:49;;;;;;;5.75;1.80;;;;;;;27.18;42.86;99779.88;10375384;28;20045;-74
2022/09/20 11:39:53;;;;;;;;;;;;;;;27.96;42.96;99835.03;10378251;28;20410;-71
2022/09/20 11:44:54;;;;;;;13.05;1.55;;;;;;;27.92;42.81;99825.81;10377129;28;19913;-69
2022/09/20 11:50:04;;;;;;;7.05;1.83;;;;;;;27.68;42.70;99812.22;10375977;28;20049;-73
2022/09/20 11:55:26;;;;;;;6.80;1.63;;;;;;;27.54;43.08;99795.75;10376223;28;20188;-70
2022/09/20 12:00:32;;;;;;;;;;;;;;;27.70;43.28;99786.25;10375783;28;20387;-69
2022/09/20 12:05:37;;;;;;;5.63;1.95;;;;;;;27.36;43.56;99761.09;10375209;28;19918;-71
2022/09/20 12:10:39;;;;;;;7.32;1.70;;;;;;;27.15;43.87;99745.00;10375231;28;20048;-70
2022/09/20 12:15:41;;;;;;;20.10;2.63;;;;;;;26.92;43.60;99685.84;10374022;28;20070;-73
2022/09/20 12:20:43;;;;;;;9.38;2.25;;;;;;;27.21;42.83;99689.31;10373806;28;20571;-73
2022/09/20 12:26:03;;;;;;;16.23;2.40;;;;;;;27.96;42.09;99781.22;10373086;28;20121;-71
2022/09/20 12:31:27;;;;;;;21.60;2.13;;;;;;;27.65;42.14;99704.47;10379718;28;20038;-75
2022/09/20 12:36:43;;;;;;;10.27;1.83;;;;;;;27.73;41.30;99774.75;10372979;28;20383;-77
2022/09/20 12:42:10;;;;;;;9.73;2.15;;;;;;;27.31;42.13;99762.81;10355485;28;20042;-77
2022/09/20 12:47:11;;;;;;;6.18;1.83;;;;;;;26.37;42.87;99645.34;10366462;28;20430;-74
2022/09/20 12:53:02;;;;;;;9.48;2.40;;;;;;;26.99;42.85;99784.44;10372586;28;20052;-74
2022/09/20 12:58:13;;;;;;;9.32;2.80;;;;;;;26.90;43.00;99808.00;10373027;28;20918;-72
2022/09/20 13:03:33;;;;;;;9.48;2.40;;;;;;;26.70;42.58;99763.50;10372725;28;20045;-75
2022/09/20 13:09:04;;;;;;;7.10;1.80;;;;;;;27.19;42.50;99832.47;10361675;28;20050;-73
2022/09/20 13:14:05;;;;;;;17.88;2.20;;;;;;;27.15;42.74;99843.16;10375527;28;20136;-72
2022/09/20 13:19:22;;;;;;;;;;;;;;;;;;;;;
2022/09/20 13:24:25;;;;;;;14.48;2.00;;;;;;;26.32;43.21;99771.47;10370168;28;20056;-72
2022/09/20 13:29:34;;;;;;;;;;;;;;;26.71;43.42;99855.03;10371347;28;20030;-73
2022/09/20 13:34:35;;;;;;;14.25;2.25;;;;;;;26.28;43.97;99843.94;10371756;28;19928;-74
2022/09/20 13:39:36;;;;;;;81.93;4.95;;;;;;;26.03;44.38;99816.91;10373263;28;20045;-72
2022/09/20 13:44:38;;;;;;;18.70;2.78;;;;;;;26.11;44.22;99829.91;10372008;28;20069;-74
2022/09/20 13:49:42;;;;;;;14.68;2.38;;;;;;;26.06;44.05;99825.31;10370046;28;20232;-74
2022/09/20 13:54:42;;;;;;;50.85;7.15;;;;;;;26.02;44.63;99818.00;10348123;28;20042;-78
2022/09/20 13:59:45;;;;;;;19.15;2.95;;;;;;;25.90;44.39;99808.28;10365723;28;20049;-73
2022/09/20 14:04:46;;;;;;;33.07;3.53;;;;;;;25.37;44.84;99721.03;10365249;28;20052;-72
2022/09/20 14:09:47;;;;;;;12.65;2.60;;;;;;;25.68;45.22;99748.00;10364912;28;20057;-75
2022/09/20 14:14:49;;;;;;;29.63;5.28;;;;;;;25.44;45.22;99748.69;10365722;28;20107;-75
2022/09/20 14:19:57;;;;;;;10.77;2.80;;;;;;;25.55;45.65;99844.66;10363415;28;20042;-75
2022/09/20 14:25:02;;;;;;;10.05;3.03;;;;;;;25.43;46.16;99872.16;10373156;28;20406;-74
2022/09/20 14:30:06;;;;;;;17.95;3.35;;;;;;;25.28;46.41;99899.41;10373616;28;20513;-73
2022/09/20 14:35:19;;;;;;;17.98;3.13;;;;;;;24.16;47.27;99759.09;10373619;28;20041;-74
2022/09/20 14:40:25;;;;;;;16.58;3.97;;;;;;;24.96;47.43;99916.00;10373335;28;20048;-74
2022/09/20 14:45:33;;;;;;;22.48;2.83;;;;;;;24.75;48.33;99907.06;10372980;28;20625;-74
2022/09/20 14:50:37;;;;;;;9.88;1.95;;;;;;;24.43;48.66;99894.56;10372661;28;20145;-71
2022/09/20 14:55:41;;;;;;;16.23;4.55;;;;;;;24.19;48.88;99867.09;10372160;28;20062;-73
2022/09/20 15:00:48;;;;;;;31.77;4.05;;;;;;;23.90;49.47;99847.78;10372871;28;20096;-74
2022/09/20 15:05:49;;;;;;;14.57;2.88;;;;;;;23.68;49.92;99840.66;10371987;28;20049;-73
2022/09/20 15:10:50;;;;;;;16.13;2.22;;;;;;;23.57;50.34;99844.44;10371556;28;20505;-70
2022/09/20 15:15:52;;;;;;;17.00;2.22;;;;;;;23.49;51.02;99853.06;10371340;28;20164;-71
2022/09/20 15:20:54;;;;;;;31.27;3.13;;;;;;;23.35;51.50;99836.47;10371205;28;20060;-75
2022/09/20 15:25:54;;;;;;;27.30;4.25;;;;;;;23.27;51.04;99830.72;10371590;28;20547;-72
2022/09/20 15:30:56;;;;;;;26.88;6.20;;;;;;;23.09;51.09;99829.28;10370765;28;20042;-70
2022/09/20 15:35:58;;;;;;;22.92;5.07;;;;;;;22.77;52.21;99803.91;10368428;28;20526;-69
2022/09/20 15:41:02;;;;;;;31.67;6.32;;;;;;;22.76;52.18;99817.69;10368806;28;20511;-70
2022/09/20 15:46:19;;;;;;;49.67;9.15;;;;;;;22.22;54.87;99759.13;10369808;28;20045;-72
2022/09/20 15:51:20;;;;;;;45.97;15.50;;;;;;;22.28;54.06;99798.69;10373188;28;20046;-69
2022/09/20 15:56:23;;;;;;;33.33;14.18;;;;;;;22.20;54.13;99798.34;10374618;28;20517;-69
2022/09/20 16:01:34;;;;;;;49.00;13.98;;;;;;;22.05;55.09;99799.81;10372217;28;20046;-69
2022/09/20 16:06:36;;;;;;;37.95;13.13;;;;;;;21.70;54.96;99773.25;10349688;28;20064;-69
2022/09/20 16:11:37;;;;;;;53.08;23.75;;;;;;;21.30;55.74;99728.50;10372934;28;20049;-69
2022/09/20 16:16:38;;;;;;;38.63;19.42;;;;;;;21.64;55.89;99836.44;10373776;28;20049;-71
2022/09/20 16:21:41;;;;;;;53.53;21.75;;;;;;;21.16;56.24;99802.88;10374878;28;20049;-68
2022/09/20 16:26:42;;;;;;;38.90;14.68;;;;;;;21.08;56.38;99782.50;10374112;28;20088;-69
2022/09/20 16:31:46;;;;;;;45.97;13.07;;;;;;;21.40;56.45;99823.19;10389794;28;20042;-69
2022/09/20 16:36:49;;;;;;;25.05;9.15;;;;;;;21.31;56.56;99797.66;10374186;28;20053;-69
2022/09/20 16:41:51;;;;;;;44.43;20.60;;;;;;;21.46;56.31;99815.16;10372238;28;20049;-72
2022/09/20 16:46:52;;;;;;;33.83;12.40;;;;;;;21.48;57.22;99829.22;10372809;28;20657;-68
2022/09/20 16:51:53;;;;;;;31.92;13.35;;;;;;;21.16;57.84;99830.69;10372512;28;20041;-70
2022/09/20 16:56:54;;;;;;;16.83;6.07;;;;;;;20.70;58.83;99818.44;10371966;28;20065;-69
2022/09/20 17:01:54;;;;;;;20.10;4.90;;;;;;;20.75;59.45;99865.22;10373581;28;20034;-69
2022/09/20 17:06:55;;;;;;;14.60;3.72;;;;;;;20.67;59.43;99862.09;10377857;28;20033;-68
2022/09/20 17:11:56;;;;;;;18.83;3.55;;;;;;;20.49;60.18;99855.88;10373116;28;20073;-69
2022/09/20 17:16:57;;;;;;;8.93;2.67;;;;;;;20.46;60.05;99874.44;10372669;28;20518;-68
2022/09/20 17:21:58;;;;;;;13.43;2.97;;;;;;;20.41;59.90;99880.56;10373050;28;20133;-68
2022/09/20 17:27:00;;;;;;;10.60;2.83;;;;;;;19.73;59.88;99773.69;10372411;28;20069;-69
2022/09/20 17:32:01;;;;;;;27.10;3.28;;;;;;;20.19;60.89;99833.78;10373459;28;20057;-68
2022/09/20 17:37:02;;;;;;;22.83;12.00;;;;;;;20.33;61.35;99864.78;10368641;28;20046;-68
2022/09/20 17:42:03;;;;;;;38.00;26.02;;;;;;;19.55;61.36;99735.06;10368095;28;20053;-69
2022/09/20 17:47:04;;;;;;;24.48;11.38;;;;;;;20.11;62.28;99836.91;10367782;28;20049;-69
2022/09/20 17:52:06;;;;;;;15.23;7.10;;;;;;;20.09;62.34;99839.00;10367845;28;20045;-69
2022/09/20 17:57:07;;;;;;;15.73;4.30;;;;;;;19.41;62.35;99747.19;10366508;28;20093;-70
2022/09/20 18:02:09;;;;;;;13.68;2.67;;;;;;;19.90;63.49;99841.91;10367077;28;20069;-70
2022/09/20 18:07:10;;;;;;;9.88;2.33;;;;;;;19.78;64.04;99833.06;10365204;28;20122;-70
2022/09/20 18:12:10;;;;;;;23.50;2.40;;;;;;;19.57;63.96;99811.09;10367834;28;20132;-70
2022/09/20 18:17:11;;;;;;;11.50;2.90;;;;;;;19.05;64.27;99727.63;10363531;28;20046;-70
2022/09/20 18:22:12;;;;;;;19.95;4.35;;;;;;;19.49;65.00;99800.69;10361160;28;20045;-70
2022/09/20 18:27:13;;;;;;;9.27;3.10;;;;;;;19.21;66.20;99779.94;10355394;28;20037;-69
2022/09/20 18:32:15;;;;;;;13.68;2.67;;;;;;;19.30;67.20;99820.78;10362938;28;21207;-70
2022/09/20 18:37:16;;;;;;;17.00;3.92;;;;;;;18.81;67.56;99766.44;10365697;28;20073;-70
2022/09/20 18:42:17;;;;;;;9.73;3.03;;;;;;;19.12;68.12;99829.84;10364454;28;20144;-70
2022/09/20 18:47:18;;;;;;;13.70;5.05;;;;;;;18.32;68.75;99725.50;10364647;28;20038;-69
2022/09/20 18:52:22;;;;;;;23.13;4.35;;;;;;;18.65;69.22;99776.81;10364502;28;20034;-69
2022/09/20 18:57:24;;;;;;;14.35;5.47;;;;;;;18.74;69.52;99790.78;10365541;28;20526;-69
2022/09/20 19:03:05;;;;;;;9.55;5.13;;;;;;;18.64;71.60;99785.16;10362460;28;20050;-70
2022/09/20 19:08:20;;;;;;;29.95;6.68;;;;;;;17.92;73.60;99685.84;10362706;28;20038;-69
2022/09/20 19:13:43;;;;;;;18.00;5.18;;;;;;;18.13;73.34;99708.69;10369203;28;20406;-69
2022/09/20 19:18:50;;;;;;;12.27;4.13;;;;;;;18.39;71.62;99759.28;10357315;28;20139;-69
2022/09/20 19:24:06;;;;;;;46.10;9.13;;;;;;;18.24;72.55;99743.59;10373073;28;20123;-68
2022/09/20 19:29:17;;;;;;;15.20;4.90;;;;;;;17.62;74.74;99659.03;10373927;28;20072;-68
2022/09/20 19:34:21;;;;;;;12.10;4.07;;;;;;;17.48;73.95;99669.97;10374330;28;20565;-68
2022/09/20 19:39:39;;;;;;;18.02;4.63;;;;;;;17.80;76.52;99704.66;10373754;28;20091;-68
2022/09/20 19:45:24;;;;;;;35.15;22.17;;;;;;;17.93;77.32;99720.56;10372496;28;20049;-70
2022/09/20 19:50:38;;;;;;;19.88;8.05;;;;;;;17.91;77.12;99717.28;10377039;28;20081;-69
2022/09/20 19:55:45;;;;;;;11.57;4.25;;;;;;;17.28;76.37;99616.56;10369961;28;20049;-69
2022/09/20 20:00:46;;;;;;;22.25;7.20;;;;;;;17.31;75.75;99642.97;10371797;28;20038;-68
2022/09/20 20:05:55;;;;;;;15.23;4.38;;;;;;;17.76;77.69;99741.84;10371443;28;20065;-68
2022/09/20 20:10:59;;;;;;;37.05;10.98;;;;;;;17.62;77.70;99761.09;10371794;28;20056;-69
2022/09/20 20:16:11;;;;;;;22.98;7.63;;;;;;;17.43;78.97;99760.31;10370240;28;20042;-69
2022/09/20 20:21:24;;;;;;;12.50;3.78;;;;;;;17.48;79.75;99771.22;10370925;28;20057;-69
2022/09/20 20:26:25;;;;;;;17.20;3.80;;;;;;;17.40;78.34;99764.28;10371974;28;20034;-69
2022/09/20 20:31:28;;;;;;;8.75;2.63;;;;;;;17.32;78.57;99757.38;10373887;28;20132;-69
2022/09/20 20:36:29;;;;;;;8.93;2.25;;;;;;;17.20;78.58;99751.13;10373898;28;20077;-68
2022/09/20 20:41:30;;;;;;;7.25;2.95;;;;;;;17.14;78.29;99748.50;10373997;28;20065;-68
2022/09/20 20:46:33;;;;;;;11.00;3.17;;;;;;;17.16;78.54;99771.38;10373223;28;20041;-69
2022/09/20 20:51:34;;;;;;;8.60;2.60;;;;;;;16.79;78.76;99709.72;10374315;28;20046;-69
2022/09/20 20:56:35;;;;;;;15.02;2.67;;;;;;;17.03;78.64;99737.50;10373477;28;20510;-69
2022/09/20 21:01:41;;;;;;;13.45;3.10;;;;;;;17.19;78.45;99752.16;10373959;28;20049;-69
2022/09/20 21:06:42;;;;;;;12.95;4.53;;;;;;;16.15;78.32;99619.84;10373695;28;20129;-69
2022/09/20 21:11:45;;;;;;;14.68;7.05;;;;;;;17.24;77.88;99805.19;10373620;28;20092;-68
2022/09/20 21:16:46;;;;;;;19.90;6.30;;;;;;;17.16;77.78;99776.75;10371601;28;20037;-68
2022/09/20 21:21:46;;;;;;;11.50;5.53;;;;;;;16.80;78.07;99735.47;10373605;28;20049;-68
2022/09/20 21:26:47;;;;;;;9.00;4.80;;;;;;;17.24;78.06;99789.88;10371853;28;20409;-67
2022/09/20 21:31:48;;;;;;;23.55;5.38;;;;;;;17.38;77.89;99819.25;10372347;28;20038;-69
2022/09/20 21:36:49;;;;;;;10.90;5.05;;;;;;;16.86;78.33;99748.00;10372110;28;20041;-67
2022/09/20 21:41:51;;;;;;;11.82;5.18;;;;;;;17.18;78.51;99798.03;10372827;28;20061;-67
2022/09/20 21:46:51;;;;;;;14.13;6.15;;;;;;;17.31;79.00;99817.44;10371933;28;20029;-69
2022/09/20 21:51:52;;;;;;;17.45;6.18;;;;;;;17.51;79.30;99825.28;10371358;28;20042;-67
2022/09/20 21:56:54;;;;;;;23.60;6.13;;;;;;;17.46;79.36;99816.25;10371121;28;20064;-68
2022/09/20 22:01:57;;;;;;;13.00;4.55;;;;;;;17.07;79.98;99776.25;10371721;28;20557;-68
2022/09/20 22:06:58;;;;;;;22.33;4.68;;;;;;;17.50;79.88;99812.06;10371859;28;20042;-67
2022/09/20 22:11:59;;;;;;;24.52;4.10;;;;;;;17.55;79.18;99831.00;10371655;28;20050;-68
2022/09/20 22:17:00;;;;;;;12.68;5.88;;;;;;;17.56;79.37;99827.28;10370692;28;20041;-68
2022/09/20 22:22:01;;;;;;;9.90;3.92;;;;;;;17.43;78.78;99777.25;10371064;28;20438;-67
2022/09/20 22:27:02;;;;;;;11.32;3.30;;;;;;;17.68;78.47;99805.84;10371696;28;20038;-67
2022/09/20 22:32:02;;;;;;;24.02;4.03;;;;;;;17.15;78.75;99675.81;10369742;28;20041;-68
2022/09/20 22:37:03;;;;;;;9.52;2.53;;;;;;;17.25;78.94;99708.31;10372024;28;20088;-67
2022/09/20 22:42:04;;;;;;;6.15;2.97;;;;;;;17.29;78.96;99746.25;10371388;28;20462;-67
2022/09/20 22:47:05;;;;;;;14.30;3.80;;;;;;;17.65;79.25;99825.09;10377382;28;20037;-69
2022/09/20 22:52:06;;;;;;;12.27;4.57;;;;;;;17.70;79.25;99860.97;10378300;28;20108;-68
2022/09/20 22:57:07;;;;;;;7.97;2.85;;;;;;;17.86;79.84;99899.03;10375023;28;20053;-68
2022/09/20 23:02:07;;;;;;;9.85;3.22;;;;;;;17.26;79.59;99806.59;10378228;28;20046;-68
2022/09/20 23:07:08;;;;;;;7.47;2.95;;;;;;;17.73;79.11;99865.06;10393944;28;20052;-69
2022/09/20 23:12:09;;;;;;;9.40;2.70;;;;;;;17.64;78.33;99828.84;10372701;28;20179;-68
2022/09/20 23:17:10;;;;;;;6.50;1.98;;;;;;;17.81;77.94;99824.50;10371673;28;20033;-68
2022/09/20 23:22:10;;;;;;;5.35;2.28;;;;;;;18.06;77.71;99837.78;10373381;28;20041;-68
2022/09/20 23:27:13;;;;;;;10.50;2.13;;;;;;;17.34;77.48;99696.19;10378249;28;20061;-68
2022/09/20 23:32:14;;;;;;;10.38;4.10;;;;;;;17.85;77.46;99792.63;10377337;28;20448;-68
2022/09/20 23:37:14;;;;;;;6.70;2.25;;;;;;;18.03;77.96;99857.03;10376177;28;20125;-68
2022/09/20 23:42:15;;;;;;;10.27;2.60;;;;;;;17.56;78.24;99784.31;10376376;28;20038;-68
2022/09/20 23:47:16;;;;;;;10.80;2.25;;;;;;;17.90;78.50;99822.31;10376751;28;20042;-68
2022/09/20 23:52:16;;;;;;;12.70;2.67;;;;;;;17.28;77.91;99721.25;10376190;28;20136;-68
2022/09/20 23:57:17;;;;;;;7.35;2.60;;;;;;;17.26;77.95;99703.75;10376375;28;20089;-68
